Monday, April 24, 2017, 10:41 PM EDT

KNHK, Nas Patuxent River Md

Location: Patuxent River, MD, United States Lat: 38.3
Local Time: 10:41 PM EDT ( 2:41 GMT) Lon: -76.4
Time Zone: US/Eastern Elev: 39 ft

Show me the last for .
Show Decoded

2017-04-24 22:03 METAR KNHK 250203Z 07012G19KT 2SM +RA BR FEW004 OVC008 12/12 A2997 RMK AO2
                 T01220122 PNO $ =
2017-04-24 21:52 METAR KNHK 250152Z 05010G20KT 6SM -RA BR FEW004 OVC008 12/12 A2997 RMK AO2 RAB42
                 SLP149 P0000 T01220122 $ =
2017-04-24 20:52 METAR KNHK 250052Z 04013KT 6SM BR OVC008 13/13 A2997 RMK AO2 SLP150 P0001
                 T01280128 $ =
2017-04-24 19:52 METAR KNHK 242352Z 05008KT 5SM BR FEW005 OVC009 13/13 A2998 RMK AO2 RAE00 SLP151
                 P0001 60013 T01280128 10133 20122 55000 $ =
2017-04-24 18:52 METAR KNHK 242252Z 06010KT 5SM -RA BR FEW006 OVC010 12/12 A2997 RMK AO2 RAB24
                 SLP150 P0002 T01220122 $ =
2017-04-24 17:52 METAR KNHK 242152Z 05012KT 6SM BR FEW009 OVC014 12/11 A2998 RMK AO2 RAB2054E25
                 SLP150 P0002 T01220111 =
2017-04-24 16:52 METAR KNHK 242052Z 06011KT 6SM BR OVC020 13/11 A2998 RMK AO2 RAE14 SLP151 P0003
                 60008 T01280111 56014 =
2017-04-24 15:52 METAR KNHK 241952Z 06012KT 4SM -RA BR OVC015 13/12 A2998 RMK AO2 SLP153 P0002
                 T01280122 =
2017-04-24 14:52 METAR KNHK 241852Z 04010KT 6SM -RA BR OVC015 13/13 A3000 RMK AO2 RAE27B50 SLP160
                 P0003 T01280128 =
2017-04-24 14:22 METAR KNHK 241822Z 05008KT 5SM -RA BR OVC014 13/13 A3001 RMK AO2 P0002 T01280128
                 =
2017-04-24 13:52 METAR KNHK 241752Z 06006KT 5SM -RA BR OVC017 13/13 A3002 RMK AO2 SLP165 P0003
                 60007 T01280128 10133 20106 56010 =
2017-04-24 12:52 METAR KNHK 241652Z 04013KT 6SM -RA BR OVC016 13/13 A3002 RMK AO2 DZE28RAB28
                 SLP165 P0001 T01280128 =
2017-04-24 11:52 METAR KNHK 241552Z 06014KT 4SM -DZ BR OVC017 13/12 A3003 RMK AO2
                 RAE1453B47E48DZB48 SLP170 P0000 T01280122 =
2017-04-24 10:52 METAR KNHK 241452Z 03012KT 9SM -RA OVC016 12/11 A3005 RMK AO2 DZE40RAB40 SLP175
                 P0000 60003 T01220106 58001 =
2017-04-24 09:52 METAR KNHK 241352Z 03013KT 8SM -DZ OVC028 12/11 A3005 RMK AO2 SLP176 P0000
                 T01170106 =
2017-04-24 09:05 METAR KNHK 241305Z 03011KT 10SM -DZ OVC028 12/11 A3005 RMK AO2 P0000 T01170106 =
2017-04-24 08:52 METAR KNHK 241252Z 03012KT 10SM -DZ FEW020 BKN030 OVC035 11/11 A3005 RMK AO2
                 DZE1155B26RAB1155E26 SLP177 P0003 T01110111 =
2017-04-24 08:26 METAR KNHK 241226Z 03009KT 6SM -DZ BKN034 OVC042 11/11 A3006 RMK AO2
                 DZE1155B26RAB1155E26 P0002 T01060106 =
2017-04-24 08:09 METAR KNHK 241209Z 04013KT 2SM -RA BR BKN026 BKN034 OVC042 11/11 A3005 RMK AO2
                 DZE1155RAB1155 P0001 T01060106 =
2017-04-24 07:52 METAR KNHK 241152Z 05013KT 6SM -DZ BR BKN028 OVC038 11/10 A3005 RMK AO2 DZB49
                 SLP176 P0000 60000 70002 T01110100 10111 20106 51006 =
2017-04-24 07:47 METAR KNHK 241147Z 05012KT 9SM BKN029 OVC038 11/09 A3005 RMK AO2 =
2017-04-24 06:52 METAR KNHK 241052Z 05011KT 10SM OVC031 11/09 A3004 RMK AO2 SLP173 T01110089 =
2017-04-24 05:52 METAR KNHK 240952Z 05008KT 10SM OVC033 11/08 A3003 RMK AO2 RAE11 SLP170 P0000
                 T01060083 $ =
2017-04-24 04:52 METAR KNHK 240852Z AUTO 06009KT 10SM -RA SCT021 SCT038 OVC055 11/08 A3004 RMK
                 AO2 RAB39 SLP172 P0000 60000 T01110083 56007 $ =
2017-04-24 03:52 METAR KNHK 240752Z AUTO 07010KT 10SM OVC055 11/09 A3004 RMK AO2 SLP173 T01110089
                 $ =
2017-04-24 02:52 METAR KNHK 240652Z AUTO 06007KT 10SM OVC060 11/09 A3005 RMK AO2 SLP175 T01110094
                 $ =
2017-04-24 01:52 METAR KNHK 240552Z AUTO 05009KT 10SM OVC070 11/10 A3006 RMK AO2 RAB03E29 SLP179
                 P0001 60002 T01110100 10139 20111 58014 $ =
2017-04-24 00:52 METAR KNHK 240452Z AUTO 09009KT 10SM OVC085 11/09 A3009 RMK AO2 RAE19 SLP188
                 P0000 T01110094 401440100 $ =
2017-04-23 23:52 METAR KNHK 240352Z AUTO 09011KT 10SM -RA OVC100 11/09 A3009 RMK AO2 RAB15 SLP191
                 P0001 T01110094 $ =
2017-04-23 22:52 METAR KNHK 240252Z AUTO 10009KT 10SM OVC100 12/09 A3010 RMK AO2 SLP193 T01220094
                 51008 $ =

Support USWX by starting your Amazon purchase here.